Language selection

My Weather Profile Weather Topics  | 

Lake Nipigon: Past 24 Hour Conditions

 

Little Flatland Island

11:00 PM EST 26 January 2021
Disclaimer

This table is a summary of hourly weather conditions for the past 24 hours.
Please note that these observations might not always be representative of weather conditions over their associated marine area.

Date / Time
(EST)
Wind(knots) Conditions Visibility(km) Pressure(kPa) Air tempC) Relative humidity(%) Dew pointC) Wind Chill
26 January 2021
23:00 NW 12 N/A N/A 102.7 -16 71 -20 -27
22:00 NW 10 N/A N/A 102.6 -16 67 -21 -25
21:00 WNW 8 N/A N/A 102.6 -16 69 -20 -24
20:00 NNW 9 N/A N/A 102.6 -16 72 -20 -24
19:00 NW 8 N/A N/A 102.5 -16 74 -20 -24
18:00 WNW 11 N/A N/A 102.5 -16 75 -20 -25
17:00 WNW 9 N/A N/A 102.5 -16 76 -19 -24
16:00 WNW 8 N/A N/A 102.4 -16 74 -19 -23
15:00 NNW 5 N/A N/A 102.3 -15 71 -19 -22
14:00 NNW 7 N/A N/A 102.3 -15 72 -19 -23
13:00 NNE 4 N/A N/A 102.4 -16 71 -20 -21
12:00 NNE 6 N/A N/A 102.4 -16 73 -20 -23
11:00 NNE 9 gust 16 N/A N/A 102.4 -16 76 -20 -25
10:00 N 9 N/A N/A 102.4 -16 76 -20 -25
9:00 N 11 N/A N/A 102.4 -16 78 -19 -26
8:00 N 8 N/A N/A 102.4 -17 78 -19 -24
7:00 N 10 N/A N/A 102.4 -16 80 -19 -26
6:00 NW 6 N/A N/A 102.4 -16 80 -19 -23
5:00 NNE 7 N/A N/A 102.4 -16 80 -19 -24
4:00 N 9 N/A N/A 102.4 -16 81 -18 -24
3:00 N 4 N/A N/A 102.4 -16 80 -19 -21
2:00 N 8 N/A N/A 102.4 -16 79 -18 -24
1:00 N 6 N/A N/A 102.4 -15 78 -18 -22
0:00 NNW 4 N/A N/A 102.4 -15 78 -18 -20
25 January 2021
23:00 NNW 4 N/A N/A 102.3 -15 80 -18 -20

Zoom-in to make a selection

Map of Great Lakes - Lake Superior marine weather areas Mid Superior - 45001 East Superior - 45004 West Superior - 45006 Slate Island - 45136 Lake Of the Woods - 45148 Kenora Airport Royal Island Armstrong Airport Caribou Island Marathon Airport Pukaskwa National Park Thunder Bay Airport Welcome Island Little Flatland Island Sault Ste. Marie Airport Wawa Airport
Legend:
buoy Buoy
land station Land Station

Great Lakes - Lake Superior Area

Another Region

What we are doing

Features

Need to travel Alberta Highway 93?

Go prepared with Highway 93 forecasts. Highway regions are available in the Alberta text forecast bulletin between Lake Louise and Jasper. (Photo by: Natalie Anderson)

Date modified: